Time;durP1;ratioP1;P1;durP2;ratioP2;P2;SDS_P1;SDS_P2;PMS_P1;PMS_P2;Temp;Humidity;BMP_temperature;BMP_pressure;BME280_temperature;BME280_humidity;BME280_pressure;Samples;Min_cycle;Max_cycle;Signal;HPM_P1;HPM_P2
2022/12/10 00:01:13;;;;;;;51.83;23.65;;;-0.50;99.90;;;;;;5107962;27;20039;-82
2022/12/10 00:03:39;;;;;;;44.45;22.50;;;-1.40;99.90;;;;;;5107948;27;20130;-83
2022/12/10 00:06:08;;;;;;;49.40;24.08;;;-0.40;99.90;;;;;;5108181;27;20130;-82
2022/12/10 00:08:34;;;;;;;43.88;23.50;;;-0.50;99.90;;;;;;5107775;27;20051;-82
2022/12/10 00:11:03;;;;;;;45.20;22.42;;;-0.50;99.90;;;;;;5090811;27;20050;-82
2022/12/10 00:13:28;;;;;;;45.60;22.40;;;-0.50;99.90;;;;;;5107570;27;20451;-82
2022/12/10 00:15:54;;;;;;;47.92;22.20;;;-0.50;99.90;;;;;;5107347;27;20125;-82
2022/12/10 00:18:20;;;;;;;47.00;22.00;;;0.20;99.90;;;;;;5090441;27;20042;-82
2022/12/10 00:20:52;;;;;;;51.53;23.73;;;-0.60;99.90;;;;;;5126514;27;20038;-83
2022/12/10 00:23:18;;;;;;;50.13;23.50;;;-0.50;99.90;;;;;;5108386;27;20479;-82
2022/12/10 00:25:44;;;;;;;52.70;22.73;;;-0.60;99.90;;;;;;5126065;27;20040;-83
2022/12/10 00:28:09;;;;;;;51.70;23.85;;;0.30;99.90;;;;;;5126316;27;20384;-83
2022/12/10 00:30:35;;;;;;;43.40;21.00;;;-0.60;99.90;;;;;;5106713;28;20091;-83
2022/12/10 00:33:01;;;;;;;50.78;23.65;;;-0.60;99.90;;;;;;5090377;28;20111;-82
2022/12/10 00:35:26;;;;;;;51.17;24.30;;;0.30;99.90;;;;;;5090831;28;20371;-82
2022/12/10 00:37:52;;;;;;;47.15;23.67;;;-0.60;99.90;;;;;;5090457;27;20112;-82
2022/12/10 00:40:18;;;;;;;52.08;25.13;;;0.70;99.90;;;;;;5090959;27;20046;-82
2022/12/10 00:42:43;;;;;;;46.55;23.80;;;-0.40;99.90;;;;;;5126215;27;20058;-83
2022/12/10 00:45:09;;;;;;;54.30;25.25;;;0.60;99.90;;;;;;5107792;28;20036;-82
2022/12/10 00:47:35;;;;;;;54.38;24.67;;;-0.60;99.90;;;;;;5125826;28;20071;-83
2022/12/10 00:50:00;;;;;;;53.97;25.38;;;-0.60;99.90;;;;;;5126149;28;20402;-83
2022/12/10 00:52:26;;;;;;;51.17;24.10;;;-0.60;99.90;;;;;;5090195;28;20538;-82
2022/12/10 00:54:52;;;;;;;61.85;27.17;;;-0.50;99.90;;;;;;5106951;28;20070;-82
2022/12/10 00:57:18;;;;;;;59.67;28.33;;;-0.60;99.90;;;;;;5090937;28;20043;-82
2022/12/10 00:59:43;;;;;;;58.10;26.58;;;-0.60;99.90;;;;;;5107394;28;20050;-82
2022/12/10 01:02:09;;;;;;;57.28;26.00;;;-0.60;99.90;;;;;;5073849;28;20054;-82
2022/12/10 01:04:35;;;;;;;57.67;26.52;;;-0.60;99.90;;;;;;5107037;28;20119;-82
2022/12/10 01:07:00;;;;;;;60.60;27.25;;;-0.60;99.90;;;;;;5107305;28;20139;-83
2022/12/10 01:09:28;;;;;;;56.50;27.75;;;-0.60;99.90;;;;;;5125663;28;20382;-83
2022/12/10 01:11:57;;;;;;;56.55;25.67;;;-0.60;99.90;;;;;;5106816;28;20049;-82
2022/12/10 01:14:25;;;;;;;62.85;28.25;;;0.50;99.90;;;;;;5125875;28;20043;-83
2022/12/10 01:16:55;;;;;;;53.17;26.45;;;0.40;99.90;;;;;;5107526;28;20401;-82
2022/12/10 01:19:21;;;;;;;50.75;25.38;;;-0.60;99.90;;;;;;5107737;28;20455;-82
2022/12/10 01:21:51;;;;;;;56.95;28.23;;;-0.60;99.90;;;;;;5107020;28;20079;-82
2022/12/10 01:24:16;;;;;;;55.03;25.63;;;-0.70;99.90;;;;;;5125547;28;20050;-82
2022/12/10 01:26:42;;;;;;;57.80;27.25;;;-0.70;99.90;;;;;;5125775;28;20039;-82
2022/12/10 01:29:11;;;;;;;55.75;27.58;;;-0.70;99.90;;;;;;5107027;28;20083;-82
2022/12/10 01:31:37;;;;;;;56.95;27.73;;;-0.70;99.90;;;;;;5107164;28;20043;-81
2022/12/10 01:34:05;;;;;;;54.40;25.67;;;-0.70;99.90;;;;;;5106782;28;20088;-82
2022/12/10 01:36:36;;;;;;;59.83;26.02;;;-0.70;99.90;;;;;;5107828;28;20116;-82
2022/12/10 01:39:04;;;;;;;58.65;27.42;;;-0.70;99.90;;;;;;5090022;28;20081;-82
2022/12/10 01:41:33;;;;;;;58.78;28.00;;;-0.80;99.90;;;;;;5106642;28;20043;-82
2022/12/10 01:44:07;;;;;;;61.00;28.55;;;-0.80;99.90;;;;;;5128397;27;20040;-82
2022/12/10 01:46:35;;;;;;;55.70;25.92;;;-0.80;99.90;;;;;;5129278;27;20039;-82
2022/12/10 01:49:04;;;;;;;61.78;27.88;;;-0.80;99.90;;;;;;5111488;27;20126;-82
2022/12/10 01:51:33;;;;;;;58.63;26.63;;;-0.80;99.90;;;;;;5110769;27;20151;-82
2022/12/10 01:54:01;;;;;;;61.58;29.15;;;-0.80;99.90;;;;;;5110841;27;20103;-82
2022/12/10 01:56:26;;;;;;;58.72;27.88;;;-0.80;99.90;;;;;;5110800;27;20051;-82
2022/12/10 01:58:56;;;;;;;63.92;29.10;;;-0.90;99.90;;;;;;5128729;27;20486;-82
2022/12/10 02:02:13;;;;;;;55.08;27.92;;;-0.90;99.90;;;;;;5128966;27;20039;-82
2022/12/10 02:05:05;;;;;;;59.00;27.10;;;-0.80;99.90;;;;;;5028821;28;20101;-82
2022/12/10 02:07:42;;;;;;;59.60;28.60;;;-0.80;99.90;;;;;;5090380;27;20058;-82
2022/12/10 02:10:42;;;;;;;55.33;26.88;;;-0.60;99.90;;;;;;5110495;27;20043;-81
2022/12/10 02:13:18;;;;;;;56.65;26.92;;;-0.80;99.90;;;;;;5092703;27;20054;-81
2022/12/10 02:15:50;;;;;;;59.50;26.85;;;-0.80;99.90;;;;;;5128649;27;20486;-81
2022/12/10 02:19:10;;;;;;;52.45;22.88;;;-0.90;99.90;;;;;;5129259;27;20047;-81
2022/12/10 02:21:40;;;;;;;62.05;27.08;;;-0.80;99.90;;;;;;5077407;27;20574;-82
2022/12/10 02:24:11;;;;;;;60.20;28.10;;;-0.90;99.90;;;;;;5129496;27;20129;-81
2022/12/10 02:27:01;;;;;;;66.25;29.30;;;-0.90;99.90;;;;;;5110983;27;20031;-82
2022/12/10 02:29:29;;;;;;;59.28;27.75;;;-0.90;99.90;;;;;;5128570;27;20043;-83
2022/12/10 02:32:07;;;;;;;60.80;28.30;;;-0.90;99.90;;;;;;5129417;27;20110;-83
2022/12/10 02:34:42;;;;;;;64.38;28.35;;;-0.90;99.90;;;;;;5129034;27;20041;-82
2022/12/10 02:37:18;;;;;;;61.53;29.30;;;-0.80;99.90;;;;;;5128585;27;20043;-83
2022/12/10 02:39:49;;;;;;;66.78;30.08;;;-0.80;99.90;;;;;;5109752;27;20051;-82
2022/12/10 02:42:16;;;;;;;65.90;29.42;;;-0.80;99.90;;;;;;5127935;27;20067;-83
2022/12/10 02:44:44;;;;;;;62.30;28.42;;;-0.80;99.90;;;;;;5092902;27;20051;-82
2022/12/10 02:47:11;;;;;;;65.53;29.70;;;-0.80;99.90;;;;;;5109734;27;20386;-82
2022/12/10 02:49:39;;;;;;;64.65;30.73;;;-0.70;99.90;;;;;;5092876;27;20043;-82
2022/12/10 02:52:12;;;;;;;65.13;29.33;;;-0.70;99.90;;;;;;5110573;27;20043;-83
2022/12/10 02:54:47;;;;;;;63.45;28.90;;;-0.70;99.90;;;;;;5091052;27;20130;-83
2022/12/10 02:57:31;;;;;;;58.45;28.80;;;-0.60;99.90;;;;;;5092318;27;20462;-83
2022/12/10 03:00:12;;;;;;;66.30;29.17;;;-0.60;99.90;;;;;;5109528;27;20402;-82
2022/12/10 03:03:00;;;;;;;60.20;28.10;;;-0.60;99.90;;;;;;5109125;27;20050;-83
2022/12/10 03:05:55;;;;;;;58.92;27.15;;;-0.70;99.90;;;;;;5109874;27;20111;-83
2022/12/10 03:08:24;;;;;;;62.95;29.42;;;-0.70;99.90;;;;;;5109142;27;20043;-83
2022/12/10 03:11:05;;;;;;;71.95;29.90;;;-0.10;99.90;;;;;;5109625;27;20045;-83
2022/12/10 03:13:38;;;;;;;63.60;27.67;;;-0.70;99.90;;;;;;5108910;27;20513;-83
2022/12/10 03:16:04;;;;;;;61.00;29.73;;;-0.80;99.90;;;;;;5092442;27;20401;-82
2022/12/10 03:18:34;;;;;;;61.92;28.48;;;-0.80;99.90;;;;;;5092269;27;20047;-82
2022/12/10 03:21:05;;;;;;;63.35;28.20;;;-0.80;99.90;;;;;;5108785;27;20054;-82
2022/12/10 03:23:34;;;;;;;62.50;27.80;;;-0.70;99.90;;;;;;5128096;27;20359;-83
2022/12/10 03:26:01;;;;;;;63.28;27.55;;;-0.80;99.90;;;;;;5126938;27;20547;-83
2022/12/10 03:28:31;;;;;;;56.67;27.83;;;-0.80;99.90;;;;;;5109160;27;20089;-83
2022/12/10 03:30:57;;;;;;;58.65;28.23;;;-0.80;99.90;;;;;;5109929;27;20134;-81
2022/12/10 03:33:23;;;;;;;64.72;29.10;;;-0.80;99.90;;;;;;5091568;27;20122;-82
2022/12/10 03:35:49;;;;;;;60.13;27.52;;;-0.80;99.90;;;;;;5127358;27;20114;-82
2022/12/10 03:38:15;;;;;;;62.33;27.98;;;-0.90;99.90;;;;;;5091624;27;20043;-81
2022/12/10 03:40:42;;;;;;;60.70;28.15;;;-0.90;99.90;;;;;;5108733;27;20079;-81
2022/12/10 03:43:08;;;;;;;60.45;27.95;;;-1.00;99.90;;;;;;5108202;27;20043;-82
2022/12/10 03:45:33;;;;;;;64.82;29.88;;;-1.00;99.90;;;;;;5108781;27;20058;-82
2022/12/10 03:47:59;;;;;;;58.95;28.17;;;-1.00;99.90;;;;;;5108497;27;20087;-82
2022/12/10 03:50:25;;;;;;;63.13;29.38;;;-1.10;99.90;;;;;;5108207;27;20054;-82
2022/12/10 03:52:50;;;;;;;60.60;26.77;;;-1.10;99.90;;;;;;5108840;27;20062;-82
2022/12/10 03:55:16;;;;;;;62.33;29.95;;;-1.10;99.90;;;;;;5126431;27;20039;-82
2022/12/10 03:57:42;;;;;;;60.63;27.30;;;-1.20;99.90;;;;;;5091811;27;20051;-82
2022/12/10 04:00:08;;;;;;;60.42;27.35;;;-1.20;99.90;;;;;;5107503;27;20039;-82
2022/12/10 04:02:34;;;;;;;64.18;29.05;;;-1.10;99.90;;;;;;5108250;27;20043;-82
2022/12/10 04:05:00;;;;;;;58.72;28.77;;;-0.90;99.90;;;;;;5126505;27;20035;-82
2022/12/10 04:07:25;;;;;;;64.55;29.33;;;-1.10;99.90;;;;;;5107370;27;20047;-82
2022/12/10 04:09:51;;;;;;;66.88;29.92;;;-1.10;99.90;;;;;;5108015;27;20055;-82
2022/12/10 04:12:16;;;;;;;64.22;28.25;;;-1.20;99.90;;;;;;5107582;27;20050;-82
2022/12/10 04:17:27;;;;;;;60.78;28.40;;;-1.10;99.90;;;;;;5107404;27;20057;-82
2022/12/10 04:19:52;;;;;;;65.93;28.58;;;-1.10;99.90;;;;;;5107813;27;20043;-81
2022/12/10 04:27:51;;;;;;;66.07;28.20;;;-1.20;99.90;;;;;;5079757;27;20426;-82
2022/12/10 04:30:17;;;;;;;60.70;28.15;;;-1.20;99.90;;;;;;5126107;27;20047;-82
2022/12/10 04:32:43;;;;;;;66.22;28.27;;;-1.20;99.90;;;;;;5108040;27;20466;-82
2022/12/10 04:35:09;;;;;;;61.80;28.58;;;0.00;99.90;;;;;;5091003;27;20130;-82
2022/12/10 04:37:35;;;;;;;59.95;28.30;;;-1.20;99.90;;;;;;5125729;27;20043;-82
2022/12/10 04:40:02;;;;;;;57.97;28.13;;;-1.30;99.90;;;;;;5107896;28;20167;-82
2022/12/10 04:42:28;;;;;;;61.50;26.33;;;-1.30;99.90;;;;;;5125447;27;20050;-82
2022/12/10 04:44:53;;;;;;;67.25;29.92;;;-1.30;99.90;;;;;;5107937;28;20122;-82
2022/12/10 04:47:19;;;;;;;66.97;30.20;;;-0.80;99.90;;;;;;5125484;28;20043;-82
2022/12/10 04:49:45;;;;;;;63.42;28.75;;;-1.40;99.90;;;;;;5107899;28;20589;-82
2022/12/10 04:52:13;;;;;;;64.95;29.85;;;-1.40;99.90;;;;;;5107502;28;20071;-82
2022/12/10 04:54:39;;;;;;;66.00;29.48;;;-1.50;99.90;;;;;;5090483;28;20104;-82
2022/12/10 04:57:06;;;;;;;66.68;28.77;;;-1.50;99.90;;;;;;5126219;28;20102;-82
2022/12/10 04:59:32;;;;;;;65.13;29.88;;;-0.80;99.90;;;;;;5125683;28;20035;-82
2022/12/10 05:01:57;;;;;;;75.10;30.80;;;-0.20;99.90;;;;;;5126739;27;20054;-82
2022/12/10 05:04:23;;;;;;;68.32;28.75;;;-1.40;99.90;;;;;;5089868;28;20042;-83
2022/12/10 05:06:49;;;;;;;63.25;27.40;;;-1.40;99.90;;;;;;5125674;28;20082;-83
2022/12/10 05:09:16;;;;;;;72.90;30.58;;;-1.30;99.90;;;;;;5107093;28;20124;-82
2022/12/10 05:11:44;;;;;;;68.80;32.47;;;-1.30;99.90;;;;;;5125726;28;20035;-82
2022/12/10 05:14:11;;;;;;;73.22;30.77;;;-1.20;99.90;;;;;;5108453;28;20065;-82
2022/12/10 05:16:37;;;;;;;73.05;31.80;;;0.10;99.90;;;;;;5106740;27;20051;-83
2022/12/10 05:19:02;;;;;;;82.65;31.67;;;-1.20;99.90;;;;;;5111114;27;20152;-83
2022/12/10 05:24:15;;;;;;;75.47;31.20;;;-1.10;99.90;;;;;;5130313;27;20058;-83
2022/12/10 05:26:40;;;;;;;76.78;34.17;;;-1.10;99.90;;;;;;5112029;27;20039;-83
2022/12/10 05:29:06;;;;;;;81.93;32.40;;;-1.30;99.90;;;;;;5129215;27;20473;-82
2022/12/10 05:31:32;;;;;;;71.20;30.15;;;-1.00;99.90;;;;;;5129786;27;20435;-82
2022/12/10 05:33:58;;;;;;;80.00;31.77;;;-1.00;99.90;;;;;;5110065;27;20039;-82
2022/12/10 05:36:28;;;;;;;78.72;30.48;;;-0.60;99.90;;;;;;5111122;27;20047;-83
2022/12/10 05:38:55;;;;;;;79.25;31.42;;;-1.10;99.90;;;;;;5128878;27;20156;-82
2022/12/10 05:41:24;;;;;;;71.88;30.90;;;-1.10;99.90;;;;;;5129287;27;20711;-83
2022/12/10 05:43:50;;;;;;;76.47;32.38;;;-1.10;99.90;;;;;;5110802;27;20036;-82
2022/12/10 05:46:25;;;;;;;79.60;29.73;;;-1.10;99.90;;;;;;5128723;27;20074;-83
2022/12/10 05:48:51;;;;;;;71.25;30.40;;;-1.10;99.90;;;;;;5094624;27;20133;-82
2022/12/10 05:51:20;;;;;;;80.75;29.92;;;-1.10;99.90;;;;;;5128271;27;20043;-82
2022/12/10 05:53:46;;;;;;;84.25;32.40;;;-1.20;99.90;;;;;;5111106;27;20054;-83
2022/12/10 05:56:15;;;;;;;73.93;31.23;;;-1.20;99.90;;;;;;5128791;27;20436;-83
2022/12/10 05:58:43;;;;;;;83.60;30.98;;;-1.20;99.90;;;;;;5110237;27;20486;-83
2022/12/10 06:01:11;;;;;;;89.05;32.08;;;-1.20;99.90;;;;;;5128789;27;20050;-82
2022/12/10 06:03:37;;;;;;;74.95;31.40;;;-1.20;99.90;;;;;;5110253;27;20058;-83
2022/12/10 06:06:04;;;;;;;88.32;32.47;;;-1.20;99.90;;;;;;5110933;27;20047;-83
2022/12/10 06:08:30;;;;;;;87.40;31.40;;;-1.20;99.90;;;;;;5109536;27;20051;-83
2022/12/10 06:10:58;;;;;;;89.63;31.40;;;-1.20;99.90;;;;;;5111572;27;20086;-83
2022/12/10 06:13:23;;;;;;;83.35;30.67;;;-0.20;99.90;;;;;;5128488;27;20107;-83
2022/12/10 06:15:49;;;;;;;85.97;31.63;;;-1.20;99.90;;;;;;5110396;27;20490;-82
2022/12/10 06:18:15;;;;;;;86.05;30.10;;;-1.20;99.90;;;;;;5128677;27;20035;-82
2022/12/10 06:20:41;;;;;;;109.35;31.83;;;-1.20;99.90;;;;;;5109063;27;20146;-82
2022/12/10 06:23:07;;;;;;;98.88;32.40;;;-1.20;99.90;;;;;;5093249;27;20130;-82
2022/12/10 06:25:33;;;;;;;133.65;32.33;;;0.10;99.90;;;;;;5109050;27;20043;-81
2022/12/10 06:27:59;;;;;;;79.63;29.70;;;-1.20;99.90;;;;;;5093801;27;20043;-82
2022/12/10 06:30:25;;;;;;;118.88;32.05;;;-1.20;99.90;;;;;;5075239;27;20039;-82
2022/12/10 06:32:50;;;;;;;169.80;30.50;;;-1.20;99.90;;;;;;5128856;27;20042;-82
2022/12/10 06:35:16;;;;;;;113.25;31.02;;;-1.20;99.90;;;;;;5109797;27;20602;-82
2022/12/10 06:37:42;;;;;;;118.47;32.30;;;-1.20;99.90;;;;;;5092205;27;20047;-81
2022/12/10 06:40:08;;;;;;;158.93;30.70;;;-0.70;99.90;;;;;;5109968;27;20039;-81
2022/12/10 06:42:33;;;;;;;99.43;27.95;;;-1.20;99.90;;;;;;5109079;27;20130;-82
2022/12/10 06:44:59;;;;;;;122.35;30.50;;;-1.20;99.90;;;;;;5128675;27;20126;-82
2022/12/10 06:47:25;;;;;;;113.82;29.92;;;-1.20;99.90;;;;;;5109160;27;20122;-83
2022/12/10 06:49:51;;;;;;;177.75;33.53;;;-0.20;99.90;;;;;;5128726;27;20042;-82
2022/12/10 06:52:17;;;;;;;105.93;30.38;;;-0.50;99.90;;;;;;5109329;27;20043;-82
2022/12/10 06:54:42;;;;;;;288.85;38.95;;;-1.20;99.90;;;;;;5108843;27;20049;-82
2022/12/10 06:57:08;;;;;;;128.07;30.33;;;-1.20;99.90;;;;;;5092541;27;20040;-82
2022/12/10 06:59:34;;;;;;;121.85;27.75;;;-1.20;99.90;;;;;;5127262;27;20080;-82
2022/12/10 07:01:59;;;;;;;147.13;29.92;;;-1.20;99.90;;;;;;5109342;27;20043;-80
2022/12/10 07:04:25;;;;;;;124.28;29.23;;;-1.20;99.90;;;;;;5126680;27;20402;-82
2022/12/10 07:06:51;;;;;;;99.60;29.40;;;-1.20;99.90;;;;;;5109415;27;20051;-83
2022/12/10 07:09:16;;;;;;;155.70;31.65;;;-1.20;99.90;;;;;;5108022;27;20047;-83
2022/12/10 07:11:42;;;;;;;86.80;30.42;;;-1.20;99.90;;;;;;5109006;27;20413;-82
2022/12/10 07:14:14;;;;;;;143.07;31.02;;;-0.90;99.90;;;;;;5108904;27;20043;-82
2022/12/10 07:16:40;;;;;;;88.78;28.65;;;-1.20;99.90;;;;;;5108120;27;20082;-83
2022/12/10 07:19:05;;;;;;;116.18;31.10;;;-1.20;99.90;;;;;;5108805;27;20078;-83
2022/12/10 07:21:34;;;;;;;161.25;34.42;;;-1.20;99.90;;;;;;5090741;27;20039;-82
2022/12/10 07:24:10;;;;;;;117.53;30.17;;;-1.20;99.90;;;;;;5109258;27;20550;-82
2022/12/10 07:26:38;;;;;;;133.25;32.13;;;-1.20;99.90;;;;;;5108586;27;20086;-83
2022/12/10 07:29:06;;;;;;;118.43;28.27;;;-1.20;99.90;;;;;;5108124;27;20043;-82
2022/12/10 07:31:32;;;;;;;141.70;31.40;;;-1.20;99.90;;;;;;5127060;27;20054;-83
2022/12/10 07:33:59;;;;;;;157.45;31.42;;;-1.20;99.90;;;;;;5126426;27;20061;-83
2022/12/10 07:36:26;;;;;;;129.18;29.48;;;-1.20;99.90;;;;;;5109100;27;20121;-84
2022/12/10 07:38:53;;;;;;;219.98;36.50;;;-1.20;99.90;;;;;;5107018;27;20076;-84
2022/12/10 07:41:20;;;;;;;173.32;33.80;;;-1.20;99.90;;;;;;5108326;27;20516;-84
2022/12/10 07:43:46;;;;;;;104.68;30.23;;;-1.30;99.90;;;;;;5090475;27;20399;-84
2022/12/10 07:46:27;;;;;;;116.68;30.73;;;-1.30;99.90;;;;;;5107286;27;20046;-84
2022/12/10 07:48:53;;;;;;;104.43;29.77;;;-1.30;99.90;;;;;;5108200;27;20047;-84
2022/12/10 07:51:20;;;;;;;112.95;31.83;;;-0.60;99.90;;;;;;5090174;27;20100;-83
2022/12/10 07:53:47;;;;;;;116.80;31.92;;;-1.40;99.90;;;;;;5127167;27;20090;-83
2022/12/10 07:56:13;;;;;;;207.07;34.20;;;-1.40;99.90;;;;;;5125486;27;20062;-83
2022/12/10 07:58:43;;;;;;;103.85;30.35;;;-1.40;99.90;;;;;;5126529;27;20039;-83
2022/12/10 08:01:18;;;;;;;120.43;31.48;;;-1.40;99.90;;;;;;5090780;27;20126;-84
2022/12/10 08:03:44;;;;;;;167.10;32.03;;;-1.40;99.90;;;;;;5107090;27;20035;-83
2022/12/10 08:06:13;;;;;;;134.98;30.20;;;-1.40;99.90;;;;;;5090643;27;20543;-83
2022/12/10 08:08:39;;;;;;;96.50;28.08;;;-1.50;99.90;;;;;;5124976;27;20543;-83
2022/12/10 08:11:06;;;;;;;94.55;29.83;;;-1.50;99.90;;;;;;5091267;27;20146;-83
2022/12/10 08:13:32;;;;;;;88.25;28.75;;;-1.50;99.90;;;;;;5125206;27;20103;-84
2022/12/10 08:16:07;;;;;;;99.05;30.27;;;-0.80;99.90;;;;;;5126173;27;20086;-83
2022/12/10 08:18:33;;;;;;;88.82;27.65;;;-1.40;99.90;;;;;;5126463;27;20043;-83
2022/12/10 08:21:07;;;;;;;108.85;29.23;;;-1.40;99.90;;;;;;5106577;27;20546;-83
2022/12/10 08:23:33;;;;;;;129.65;28.58;;;-1.40;99.90;;;;;;5107819;27;20095;-85
2022/12/10 08:26:03;;;;;;;106.28;28.83;;;-1.40;99.90;;;;;;5106667;27;20082;-83
2022/12/10 08:28:28;;;;;;;130.93;29.60;;;-1.40;99.90;;;;;;5126656;27;20447;-84
2022/12/10 08:30:54;;;;;;;127.88;29.88;;;-1.40;99.90;;;;;;5106788;27;20099;-82
2022/12/10 08:33:20;;;;;;;91.60;27.58;;;-1.50;99.90;;;;;;5090705;27;20719;-83
2022/12/10 08:35:45;;;;;;;104.68;27.40;;;-1.50;99.90;;;;;;5107717;27;20383;-85
2022/12/10 08:38:11;;;;;;;103.75;25.42;;;-1.40;99.90;;;;;;5089446;27;20062;-85
2022/12/10 08:40:41;;;;;;;121.30;27.33;;;-1.50;99.90;;;;;;5126335;27;20054;-85
2022/12/10 08:43:07;;;;;;;110.57;27.58;;;-1.50;99.90;;;;;;5124528;27;20517;-85
2022/12/10 08:45:32;;;;;;;84.78;25.30;;;-1.50;99.90;;;;;;5126514;27;20049;-83
2022/12/10 08:47:58;;;;;;;103.25;28.45;;;-1.50;99.90;;;;;;5090085;28;20151;-83
2022/12/10 08:50:24;;;;;;;96.78;24.95;;;-1.50;99.90;;;;;;5073540;28;20043;-83
2022/12/10 08:52:55;;;;;;;126.25;27.42;;;-1.50;99.90;;;;;;5109706;27;20073;-82
2022/12/10 08:55:21;;;;;;;121.57;26.65;;;-1.50;99.90;;;;;;5110833;27;20443;-82
2022/12/10 08:57:46;;;;;;;79.10;25.35;;;-1.50;99.90;;;;;;5078412;27;20396;-83
2022/12/10 09:00:13;;;;;;;82.68;27.77;;;-2.30;99.90;;;;;;5093843;27;20050;-84
2022/12/10 09:02:39;;;;;;;115.47;24.90;;;-1.50;99.90;;;;;;5112149;27;20484;-83
2022/12/10 09:05:05;;;;;;;70.63;25.35;;;-1.50;99.90;;;;;;5094058;27;20122;-84
2022/12/10 09:07:31;;;;;;;68.80;24.52;;;-1.40;99.90;;;;;;5113169;27;20074;-84
2022/12/10 09:09:57;;;;;;;91.22;24.92;;;-1.40;99.90;;;;;;5078132;27;20075;-85
2022/12/10 09:12:23;;;;;;;80.68;24.15;;;-1.40;99.90;;;;;;5076845;27;20541;-85
2022/12/10 09:14:48;;;;;;;80.13;24.42;;;-1.50;99.90;;;;;;5094467;27;20134;-84
2022/12/10 09:17:14;;;;;;;121.90;24.60;;;-1.50;99.90;;;;;;5110123;27;20051;-84
2022/12/10 09:19:40;;;;;;;72.88;23.98;;;-1.40;99.90;;;;;;5094060;27;20092;-85
2022/12/10 09:22:06;;;;;;;93.45;22.88;;;-1.50;99.90;;;;;;5093214;27;20046;-84
2022/12/10 09:24:33;;;;;;;97.95;22.08;;;-1.60;99.90;;;;;;5111081;27;20398;-86
2022/12/10 09:27:00;;;;;;;90.75;22.77;;;-1.60;99.90;;;;;;5093730;27;20464;-85
2022/12/10 09:29:26;;;;;;;104.43;23.92;;;-0.90;99.90;;;;;;5093191;27;20039;-83
2022/12/10 09:31:52;;;;;;;86.63;25.33;;;-1.60;99.90;;;;;;5110655;27;20105;-84
2022/12/10 09:34:18;;;;;;;95.90;24.00;;;-1.60;99.90;;;;;;5092785;27;20050;-84
2022/12/10 09:36:44;;;;;;;98.22;24.67;;;-1.60;99.90;;;;;;5094172;27;20035;-83
2022/12/10 09:39:10;;;;;;;72.22;23.55;;;-1.50;99.90;;;;;;5109536;27;20339;-84
2022/12/10 09:42:07;;;;;;;85.53;23.05;;;-1.50;99.90;;;;;;5093681;27;20043;-83
2022/12/10 09:44:59;;;;;;;74.38;24.48;;;-1.50;99.90;;;;;;5093381;27;20040;-85
2022/12/10 09:47:34;;;;;;;86.68;23.77;;;-1.40;99.90;;;;;;5087726;27;20058;-84
2022/12/10 09:50:34;;;;;;;60.15;23.98;;;-1.40;99.90;;;;;;5110758;27;20166;-86
2022/12/10 09:53:02;;;;;;;69.18;24.73;;;-1.40;99.90;;;;;;5110230;27;20054;-85
2022/12/10 09:55:34;;;;;;;66.75;22.88;;;-1.30;99.90;;;;;;5108906;27;20053;-84
2022/12/10 09:58:02;;;;;;;72.30;18.88;;;-1.30;99.90;;;;;;5093511;27;20052;-84
2022/12/10 10:00:41;;;;;;;68.57;23.52;;;-1.30;99.90;;;;;;5109158;27;20073;-83
2022/12/10 10:03:13;;;;;;;80.70;25.02;;;-1.30;99.90;;;;;;5092911;27;20047;-84
2022/12/10 10:05:51;;;;;;;71.25;26.23;;;-1.20;99.90;;;;;;5092976;27;20379;-86
2022/12/10 10:08:37;;;;;;;70.88;26.45;;;-0.50;99.90;;;;;;5088791;28;20090;-83
2022/12/10 10:11:04;;;;;;;64.50;25.25;;;-0.90;99.90;;;;;;5107257;28;20044;-83
2022/12/10 10:13:44;;;;;;;71.18;24.08;;;-1.20;99.90;;;;;;5088423;28;20119;-82
2022/12/10 10:16:27;;;;;;;61.63;25.33;;;-1.20;99.90;;;;;;5107126;28;20712;-80
2022/12/10 10:19:01;;;;;;;74.07;24.55;;;-1.10;99.90;;;;;;5089708;28;20130;-82
2022/12/10 10:21:36;;;;;;;70.18;24.90;;;-1.10;99.90;;;;;;5088531;28;20157;-82
2022/12/10 10:24:03;;;;;;;69.05;25.98;;;-1.10;99.90;;;;;;5090216;28;20048;-84
2022/12/10 10:26:29;;;;;;;58.88;24.88;;;-1.10;99.90;;;;;;5104981;28;20498;-83
2022/12/10 10:29:06;;;;;;;59.58;24.17;;;-1.00;99.90;;;;;;5106670;28;20039;-84
2022/12/10 10:31:34;;;;;;;59.63;23.92;;;-1.00;99.90;;;;;;5089638;28;20437;-83
2022/12/10 10:34:06;;;;;;;57.53;23.15;;;-1.00;99.90;;;;;;5088271;28;20435;-82
2022/12/10 10:36:34;;;;;;;60.10;24.33;;;-1.00;99.90;;;;;;5106174;28;20032;-82
2022/12/10 10:39:28;;;;;;;57.40;23.27;;;-1.00;99.90;;;;;;5088170;28;20064;-80
2022/12/10 10:41:55;;;;;;;52.45;21.63;;;0.10;99.90;;;;;;5089428;28;20380;-81
2022/12/10 10:44:24;;;;;;;45.95;20.35;;;-0.90;99.90;;;;;;5106067;28;20130;-81
2022/12/10 10:46:53;;;;;;;38.90;19.55;;;-0.90;99.90;;;;;;5105253;28;20044;-82
2022/12/10 10:49:32;;;;;;;40.17;17.98;;;-0.90;99.90;;;;;;5088913;28;20039;-81
2022/12/10 10:52:14;;;;;;;40.80;19.42;;;-0.80;99.90;;;;;;5088096;28;20036;-82
2022/12/10 10:54:43;;;;;;;43.50;17.97;;;-0.70;99.90;;;;;;5105855;28;20043;-80
2022/12/10 10:57:32;;;;;;;43.70;18.15;;;-0.80;99.90;;;;;;5105117;28;20517;-80
2022/12/10 11:00:18;;;;;;;35.13;15.48;;;-0.80;99.90;;;;;;5104687;28;20069;-81
2022/12/10 11:02:44;;;;;;;34.72;17.23;;;-0.70;99.90;;;;;;5088665;28;20044;-81
2022/12/10 11:05:29;;;;;;;38.25;17.33;;;-1.60;99.90;;;;;;5087959;28;20049;-82
2022/12/10 11:08:03;;;;;;;38.47;17.77;;;-0.60;99.90;;;;;;5105182;28;20066;-80
2022/12/10 11:10:30;;;;;;;43.95;18.92;;;-0.60;99.90;;;;;;5105636;28;20507;-81
2022/12/10 11:13:04;;;;;;;39.00;18.23;;;0.40;99.90;;;;;;5106143;28;20039;-81
2022/12/10 11:15:55;;;;;;;43.30;17.95;;;-0.50;99.90;;;;;;5105137;28;20415;-80
2022/12/10 11:18:29;;;;;;;43.45;17.63;;;-0.50;99.90;;;;;;5104340;28;20475;-81
2022/12/10 11:21:07;;;;;;;37.97;19.70;;;-0.40;99.90;;;;;;5087679;28;20404;-81
2022/12/10 11:23:39;;;;;;;39.42;19.00;;;-0.40;99.90;;;;;;5088319;28;20040;-80
2022/12/10 11:26:37;;;;;;;38.38;18.15;;;0.60;99.90;;;;;;5087160;28;20036;-81
2022/12/10 11:29:50;;;;;;;43.13;18.45;;;-0.20;99.90;;;;;;5094585;28;20292;-81
2022/12/10 11:32:24;;;;;;;44.60;18.15;;;-0.20;99.90;;;;;;5098173;28;20082;-80
2022/12/10 11:34:55;;;;;;;38.78;17.98;;;-0.10;99.90;;;;;;5104672;28;20386;-80
2022/12/10 11:37:42;;;;;;;38.75;17.45;;;-0.20;99.90;;;;;;5088802;28;20051;-80
2022/12/10 11:40:26;;;;;;;37.03;17.13;;;-0.20;99.90;;;;;;5105411;28;20444;-81
2022/12/10 11:43:09;;;;;;;40.80;17.30;;;-0.30;99.90;;;;;;5103815;28;20064;-79
2022/12/10 11:46:02;;;;;;;37.80;18.92;;;-0.30;99.90;;;;;;5108459;28;20047;-79
2022/12/10 11:48:49;;;;;;;39.60;17.70;;;-0.30;99.90;;;;;;5091554;28;20044;-81
2022/12/10 11:51:44;;;;;;;36.95;18.15;;;-0.40;99.90;;;;;;5091571;28;20035;-80
2022/12/10 11:54:19;;;;;;;38.83;17.98;;;-0.40;99.90;;;;;;5108211;28;20176;-78
2022/12/10 11:57:01;;;;;;;41.30;19.85;;;-0.50;99.90;;;;;;5107025;28;20058;-78
2022/12/10 11:59:57;;;;;;;40.33;19.38;;;-0.40;99.90;;;;;;5108454;28;20040;-75
2022/12/10 12:03:00;;;;;;;38.70;18.33;;;-0.50;99.90;;;;;;5108152;28;20509;-79
2022/12/10 12:05:53;;;;;;;41.95;18.27;;;-0.50;99.90;;;;;;5108310;28;20393;-79
2022/12/10 12:08:28;;;;;;;38.78;18.98;;;-0.50;99.90;;;;;;5106887;28;20503;-79
2022/12/10 12:11:14;;;;;;;48.92;20.52;;;-0.50;99.90;;;;;;5108028;28;20123;-79
2022/12/10 12:14:01;;;;;;;42.47;19.02;;;-0.50;99.90;;;;;;5106789;28;20101;-78
2022/12/10 12:16:48;;;;;;;46.88;19.77;;;-0.60;99.90;;;;;;5090787;28;20217;-79
2022/12/10 12:19:23;;;;;;;48.25;19.02;;;-0.50;99.90;;;;;;5108983;28;20075;-80
2022/12/10 12:21:50;;;;;;;44.15;18.80;;;-0.50;99.90;;;;;;5089533;28;20048;-81
2022/12/10 12:24:40;;;;;;;48.85;20.25;;;-0.50;99.90;;;;;;5091038;28;20134;-81
2022/12/10 12:27:26;;;;;;;48.50;20.75;;;-1.10;99.90;;;;;;5107310;28;20059;-83
2022/12/10 12:30:02;;;;;;;50.65;21.15;;;-0.50;99.90;;;;;;5090292;28;20040;-82
2022/12/10 12:32:52;;;;;;;49.30;21.83;;;-0.50;99.90;;;;;;5108114;28;20050;-83
2022/12/10 12:35:46;;;;;;;43.13;20.27;;;-0.40;99.90;;;;;;5090716;28;20177;-80
2022/12/10 12:38:14;;;;;;;55.75;21.08;;;-0.40;99.90;;;;;;5106614;28;20066;-81
2022/12/10 12:40:48;;;;;;;45.97;20.58;;;-0.40;99.90;;;;;;5090615;28;20050;-84
2022/12/10 12:43:22;;;;;;;54.40;20.75;;;-0.40;99.90;;;;;;5106057;28;20051;-82
2022/12/10 12:45:52;;;;;;;50.20;21.85;;;-0.30;99.90;;;;;;5090456;28;20072;-79
2022/12/10 12:48:51;;;;;;;53.88;22.20;;;0.90;99.90;;;;;;5106330;28;20044;-78
2022/12/10 12:51:38;;;;;;;57.33;22.60;;;-0.20;99.90;;;;;;5091171;28;20055;-78
2022/12/10 12:54:04;;;;;;;58.70;23.00;;;-0.20;99.90;;;;;;5107440;28;20043;-81
2022/12/10 12:56:45;;;;;;;49.40;20.33;;;-0.20;99.90;;;;;;5072447;28;20050;-80